Aviation Digital Data Service (ADDS)

Output produced by TAFs form (1114 UTC 06 May 2016)
found at http://www.aviationweather.gov/adds/tafs/
 
TAF AMD KDOV 061113Z 0611/0714 05009KT 8000 -RA BR FEW010 OVC040 620805 QNH2962INS 
     BECMG 0612/0613 04012KT 8000 -RA BR OVC008 620706 QNH2963INS 
     BECMG 0619/0620 VRB06KT 6000 -RA BR OVC005 620506 QNH2966INS 
     BECMG 0713/0714 VRB06KT 8000 -RA BR OVC010 620605 QNH2974INS TX13/0619Z TN09/0612Z